RYO44R KMCO-KEWR
Flight info
| Callsign | RYO44R |
|---|---|
| Flight time | 2h 10m |
| Altitude | 39000 |
| Route | FATHE4 VIYAP Q87 ALWZZ OGRAE Q99 QUART PHLBO4 |
| Aircraft | BBJ2/M-SDE2E3FGHIRWXY/LB1 |
Departure
| Time | 2026-05-05 08:48 |
|---|---|
| Airport | Orlando International Airport (KMCO) |
Arrival
| Time | 2026-05-05 10:58 |
|---|---|
| Airport | Newark Liberty International Airport (KEWR) |
| Time | Latitude | Longitude | Altitude | Speed | Heading |
|---|---|---|---|---|---|
| 2026-05-05 08:32 | 28.42035 | -81.33097 | 104 ft | 0 kts | 9° |
| 2026-05-05 08:45 | 28.42036 | -81.33097 | 104 ft | 1 kts | 9° |
| 2026-05-05 08:45 | 28.42059 | -81.33079 | 104 ft | 7 kts | 53° |
| 2026-05-05 08:45 | 28.42056 | -81.33018 | 103 ft | 9 kts | 103° |
| 2026-05-05 08:45 | 28.42038 | -81.32943 | 101 ft | 10 kts | 114° |
| 2026-05-05 08:46 | 28.41978 | -81.32912 | 104 ft | 10 kts | 172° |
| 2026-05-05 08:46 | 28.41903 | -81.32911 | 106 ft | 14 kts | 180° |
| 2026-05-05 08:46 | 28.41798 | -81.32910 | 108 ft | 16 kts | 179° |
| 2026-05-05 08:46 | 28.41684 | -81.32909 | 108 ft | 16 kts | 179° |
| 2026-05-05 08:47 | 28.41574 | -81.32903 | 107 ft | 16 kts | 158° |
| 2026-05-05 08:47 | 28.41539 | -81.32794 | 107 ft | 15 kts | 88° |
| 2026-05-05 08:47 | 28.41551 | -81.32682 | 108 ft | 14 kts | 50° |
| 2026-05-05 08:47 | 28.41646 | -81.32663 | 107 ft | 14 kts | 1° |
| 2026-05-05 08:48 | 28.41839 | -81.32670 | 105 ft | 56 kts | 359° |
| 2026-05-05 08:48 | 28.42490 | -81.32670 | 103 ft | 129 kts | 359° |
| 2026-05-05 08:48 | 28.43574 | -81.32658 | 261 ft | 173 kts | 1° |
| 2026-05-05 08:48 | 28.44762 | -81.32646 | 1099 ft | 170 kts | 1° |
| 2026-05-05 08:49 | 28.45945 | -81.32657 | 1981 ft | 174 kts | 0° |
| 2026-05-05 08:49 | 28.47258 | -81.32691 | 2255 ft | 203 kts | 1° |
| 2026-05-05 08:49 | 28.48731 | -81.32718 | 2453 ft | 226 kts | 2° |
| 2026-05-05 08:49 | 28.50388 | -81.32732 | 2819 ft | 242 kts | 2° |
| 2026-05-05 08:50 | 28.52088 | -81.32752 | 3474 ft | 246 kts | 2° |
| 2026-05-05 08:50 | 28.53785 | -81.32772 | 4153 ft | 249 kts | 2° |
| 2026-05-05 08:50 | 28.55575 | -81.32720 | 4500 ft | 265 kts | 7° |
| 2026-05-05 08:50 | 28.57429 | -81.32446 | 5072 ft | 272 kts | 9° |
| 2026-05-05 08:51 | 28.59317 | -81.32136 | 5746 ft | 275 kts | 8° |
| 2026-05-05 08:51 | 28.61219 | -81.31835 | 6434 ft | 278 kts | 8° |
| 2026-05-05 08:51 | 28.63145 | -81.31548 | 7102 ft | 281 kts | 7° |
| 2026-05-05 08:51 | 28.65104 | -81.31286 | 7734 ft | 286 kts | 6° |
| 2026-05-05 08:52 | 28.67103 | -81.31029 | 8371 ft | 291 kts | 6° |
| 2026-05-05 08:52 | 28.69129 | -81.30769 | 9083 ft | 293 kts | 6° |
| 2026-05-05 08:52 | 28.71166 | -81.30508 | 9800 ft | 296 kts | 5° |
| 2026-05-05 08:52 | 28.73232 | -81.30241 | 10373 ft | 305 kts | 5° |
| 2026-05-05 08:53 | 28.75425 | -81.29959 | 10541 ft | 328 kts | 5° |
| 2026-05-05 08:53 | 28.77769 | -81.29656 | 10711 ft | 349 kts | 5° |
| 2026-05-05 08:53 | 28.80250 | -81.29334 | 10872 ft | 369 kts | 5° |
| 2026-05-05 08:53 | 28.82843 | -81.28996 | 11233 ft | 379 kts | 5° |
| 2026-05-05 08:54 | 28.85488 | -81.28802 | 11789 ft | 382 kts | 358° |
| 2026-05-05 08:54 | 28.88144 | -81.28994 | 12444 ft | 384 kts | 353° |
| 2026-05-05 08:54 | 28.90815 | -81.29313 | 13074 ft | 386 kts | 352° |
| 2026-05-05 08:54 | 28.93492 | -81.29617 | 13713 ft | 389 kts | 353° |
| 2026-05-05 08:55 | 28.96206 | -81.29879 | 14364 ft | 392 kts | 353° |
| 2026-05-05 08:55 | 28.98931 | -81.30115 | 14986 ft | 395 kts | 353° |
| 2026-05-05 08:55 | 29.01638 | -81.30380 | 15609 ft | 397 kts | 352° |
| 2026-05-05 08:55 | 29.04396 | -81.30693 | 16232 ft | 399 kts | 351° |
| 2026-05-05 08:56 | 29.07172 | -81.31013 | 16831 ft | 402 kts | 351° |
| 2026-05-05 08:56 | 29.09962 | -81.31329 | 17399 ft | 405 kts | 351° |
| 2026-05-05 08:56 | 29.12780 | -81.31607 | 17955 ft | 409 kts | 352° |
| 2026-05-05 08:56 | 29.15631 | -81.31794 | 18508 ft | 412 kts | 353° |
| 2026-05-05 08:57 | 29.18507 | -81.31946 | 19028 ft | 415 kts | 353° |
| 2026-05-05 08:57 | 29.21398 | -81.32093 | 19525 ft | 418 kts | 353° |
| 2026-05-05 08:57 | 29.24314 | -81.32248 | 20005 ft | 422 kts | 353° |
| 2026-05-05 08:57 | 29.27255 | -81.32411 | 20498 ft | 424 kts | 353° |
| 2026-05-05 08:58 | 29.30215 | -81.32582 | 20973 ft | 427 kts | 353° |
| 2026-05-05 08:58 | 29.33192 | -81.32759 | 21422 ft | 430 kts | 353° |
| 2026-05-05 08:58 | 29.36184 | -81.32939 | 21874 ft | 433 kts | 352° |
| 2026-05-05 08:58 | 29.39194 | -81.33121 | 22297 ft | 435 kts | 353° |
| 2026-05-05 08:59 | 29.42234 | -81.33306 | 22699 ft | 438 kts | 352° |
| 2026-05-05 08:59 | 29.45283 | -81.33489 | 23106 ft | 440 kts | 352° |
| 2026-05-05 08:59 | 29.48351 | -81.33674 | 23498 ft | 442 kts | 352° |
| 2026-05-05 08:59 | 29.51435 | -81.33860 | 23867 ft | 445 kts | 352° |
| 2026-05-05 09:00 | 29.54537 | -81.34047 | 24218 ft | 447 kts | 352° |
| 2026-05-05 09:00 | 29.57617 | -81.34233 | 24588 ft | 449 kts | 352° |
| 2026-05-05 09:00 | 29.60735 | -81.34421 | 24987 ft | 450 kts | 352° |
| 2026-05-05 09:00 | 29.63876 | -81.34611 | 25362 ft | 452 kts | 352° |
| 2026-05-05 09:01 | 29.67009 | -81.34796 | 25735 ft | 452 kts | 352° |
| 2026-05-05 09:01 | 29.70167 | -81.34978 | 26080 ft | 454 kts | 352° |
| 2026-05-05 09:01 | 29.73320 | -81.35158 | 26423 ft | 455 kts | 351° |
| 2026-05-05 09:01 | 29.76493 | -81.35338 | 26751 ft | 456 kts | 351° |
| 2026-05-05 09:02 | 29.79661 | -81.35519 | 27059 ft | 457 kts | 351° |
| 2026-05-05 09:02 | 29.82843 | -81.35701 | 27385 ft | 458 kts | 351° |
| 2026-05-05 09:02 | 29.86026 | -81.35883 | 27694 ft | 458 kts | 351° |
| 2026-05-05 09:02 | 29.89222 | -81.36067 | 27969 ft | 460 kts | 350° |
| 2026-05-05 09:03 | 29.92419 | -81.36251 | 28246 ft | 461 kts | 350° |
| 2026-05-05 09:03 | 29.95627 | -81.36434 | 28550 ft | 461 kts | 350° |
| 2026-05-05 09:03 | 29.98828 | -81.36616 | 28947 ft | 459 kts | 350° |
| 2026-05-05 09:03 | 30.02007 | -81.36796 | 29402 ft | 455 kts | 349° |
| 2026-05-05 09:04 | 30.05160 | -81.36976 | 29807 ft | 453 kts | 349° |
| 2026-05-05 09:04 | 30.08311 | -81.37158 | 30124 ft | 453 kts | 349° |
| 2026-05-05 09:04 | 30.11457 | -81.37340 | 30481 ft | 452 kts | 349° |
| 2026-05-05 09:04 | 30.14568 | -81.37519 | 31089 ft | 443 kts | 349° |
| 2026-05-05 09:05 | 30.17591 | -81.37687 | 31985 ft | 427 kts | 349° |
| 2026-05-05 09:05 | 30.20522 | -81.37850 | 32740 ft | 417 kts | 349° |
| 2026-05-05 09:05 | 30.23392 | -81.38015 | 33259 ft | 410 kts | 349° |
| 2026-05-05 09:05 | 30.26195 | -81.38180 | 33649 ft | 407 kts | 349° |
| 2026-05-05 09:06 | 30.29015 | -81.38348 | 33979 ft | 405 kts | 349° |
| 2026-05-05 09:06 | 30.31819 | -81.38515 | 34334 ft | 402 kts | 349° |
| 2026-05-05 09:06 | 30.34598 | -81.38682 | 34637 ft | 400 kts | 349° |
| 2026-05-05 09:06 | 30.37388 | -81.38847 | 34774 ft | 403 kts | 349° |
| 2026-05-05 09:07 | 30.40196 | -81.39011 | 34894 ft | 405 kts | 349° |
| 2026-05-05 09:07 | 30.43013 | -81.39174 | 35121 ft | 405 kts | 349° |
| 2026-05-05 09:07 | 30.45827 | -81.39333 | 35322 ft | 405 kts | 349° |
| 2026-05-05 09:07 | 30.48648 | -81.39489 | 35523 ft | 406 kts | 349° |
| 2026-05-05 09:08 | 30.51466 | -81.39642 | 35699 ft | 406 kts | 349° |
| 2026-05-05 09:08 | 30.54288 | -81.39792 | 35902 ft | 406 kts | 349° |
| 2026-05-05 09:08 | 30.57108 | -81.39938 | 36120 ft | 405 kts | 349° |
| 2026-05-05 09:08 | 30.59934 | -81.40087 | 36279 ft | 406 kts | 348° |
| 2026-05-05 09:09 | 30.62763 | -81.40239 | 36394 ft | 408 kts | 349° |
| 2026-05-05 09:09 | 30.65597 | -81.40392 | 36548 ft | 408 kts | 349° |
| 2026-05-05 09:09 | 30.68431 | -81.40544 | 36836 ft | 406 kts | 349° |
| 2026-05-05 09:09 | 30.71235 | -81.40691 | 37079 ft | 404 kts | 348° |
| 2026-05-05 09:10 | 30.74055 | -81.40840 | 37062 ft | 405 kts | 348° |
| 2026-05-05 09:10 | 30.79669 | -81.41142 | 37068 ft | 402 kts | 348° |
| 2026-05-05 09:11 | 30.85235 | -81.41441 | 37074 ft | 399 kts | 348° |
| 2026-05-05 09:11 | 30.90775 | -81.41739 | 37074 ft | 398 kts | 348° |
| 2026-05-05 09:12 | 30.96301 | -81.42038 | 37078 ft | 397 kts | 349° |
| 2026-05-05 09:12 | 31.01796 | -81.42336 | 37074 ft | 398 kts | 349° |
| 2026-05-05 09:13 | 31.07380 | -81.42636 | 37072 ft | 400 kts | 349° |
| 2026-05-05 09:13 | 31.12909 | -81.42936 | 37065 ft | 402 kts | 349° |
| 2026-05-05 09:14 | 31.18516 | -81.43239 | 37068 ft | 404 kts | 349° |
| 2026-05-05 09:14 | 31.24150 | -81.43435 | 37063 ft | 413 kts | 357° |
| 2026-05-05 09:14 | 31.27015 | -81.42714 | 37085 ft | 430 kts | 11° |
| 2026-05-05 09:15 | 31.29792 | -81.41315 | 37099 ft | 438 kts | 15° |
| 2026-05-05 09:15 | 31.35315 | -81.38227 | 37081 ft | 441 kts | 16° |
| 2026-05-05 09:16 | 31.40856 | -81.35129 | 37085 ft | 441 kts | 16° |
| 2026-05-05 09:16 | 31.46414 | -81.32084 | 37082 ft | 441 kts | 15° |
| 2026-05-05 09:17 | 31.51984 | -81.29053 | 37073 ft | 441 kts | 15° |
| 2026-05-05 09:17 | 31.57550 | -81.26020 | 37070 ft | 441 kts | 15° |
| 2026-05-05 09:18 | 31.62170 | -81.23498 | 37074 ft | 440 kts | 15° |
| 2026-05-05 09:18 | 31.67713 | -81.20468 | 37066 ft | 440 kts | 15° |
| 2026-05-05 09:19 | 31.73259 | -81.17434 | 37068 ft | 439 kts | 16° |
| 2026-05-05 09:19 | 31.78794 | -81.14403 | 37073 ft | 438 kts | 16° |
| 2026-05-05 09:20 | 31.84316 | -81.11373 | 37066 ft | 438 kts | 16° |
| 2026-05-05 09:20 | 31.89834 | -81.08341 | 37063 ft | 437 kts | 16° |
| 2026-05-05 09:21 | 31.95349 | -81.05308 | 37064 ft | 437 kts | 16° |
| 2026-05-05 09:21 | 32.00837 | -81.02286 | 37057 ft | 438 kts | 16° |
| 2026-05-05 09:22 | 32.06351 | -80.99211 | 37059 ft | 438 kts | 17° |
| 2026-05-05 09:22 | 32.11865 | -80.96119 | 37071 ft | 439 kts | 17° |
| 2026-05-05 09:23 | 32.17386 | -80.93023 | 37080 ft | 440 kts | 17° |
| 2026-05-05 09:23 | 32.22924 | -80.89915 | 37080 ft | 441 kts | 17° |
| 2026-05-05 09:24 | 32.28468 | -80.86800 | 37100 ft | 442 kts | 17° |
| 2026-05-05 09:24 | 32.34031 | -80.83671 | 37090 ft | 443 kts | 17° |
| 2026-05-05 09:25 | 32.39598 | -80.80534 | 37089 ft | 444 kts | 18° |
| 2026-05-05 09:25 | 32.45172 | -80.77392 | 37094 ft | 444 kts | 18° |
| 2026-05-05 09:26 | 32.50753 | -80.74238 | 37093 ft | 444 kts | 18° |
| 2026-05-05 09:26 | 32.56335 | -80.71078 | 37095 ft | 445 kts | 18° |
| 2026-05-05 09:27 | 32.61923 | -80.67910 | 37089 ft | 445 kts | 18° |
| 2026-05-05 09:27 | 32.67477 | -80.64759 | 37097 ft | 445 kts | 18° |
| 2026-05-05 09:28 | 32.73057 | -80.61574 | 37091 ft | 446 kts | 19° |
| 2026-05-05 09:28 | 32.78605 | -80.58291 | 37092 ft | 446 kts | 19° |
| 2026-05-05 09:29 | 32.84157 | -80.54977 | 37102 ft | 446 kts | 19° |
| 2026-05-05 09:29 | 32.89702 | -80.51671 | 37100 ft | 445 kts | 19° |
| 2026-05-05 09:30 | 32.95240 | -80.48374 | 37101 ft | 445 kts | 19° |
| 2026-05-05 09:30 | 33.00777 | -80.45075 | 37090 ft | 445 kts | 19° |
| 2026-05-05 09:31 | 33.06314 | -80.41773 | 37088 ft | 445 kts | 20° |
| 2026-05-05 09:31 | 33.11845 | -80.38468 | 37082 ft | 445 kts | 20° |
| 2026-05-05 09:32 | 33.17370 | -80.35160 | 37084 ft | 444 kts | 20° |
| 2026-05-05 09:32 | 33.22904 | -80.31847 | 37083 ft | 445 kts | 20° |
| 2026-05-05 09:33 | 33.28430 | -80.28529 | 37100 ft | 444 kts | 20° |
| 2026-05-05 09:33 | 33.33948 | -80.25212 | 37089 ft | 444 kts | 21° |
| 2026-05-05 09:34 | 33.39474 | -80.21886 | 37089 ft | 444 kts | 21° |
| 2026-05-05 09:34 | 33.44995 | -80.18559 | 37095 ft | 444 kts | 21° |
| 2026-05-05 09:35 | 33.50484 | -80.15245 | 37101 ft | 445 kts | 21° |
| 2026-05-05 09:35 | 33.58793 | -80.10220 | 37100 ft | 446 kts | 21° |
| 2026-05-05 09:36 | 33.64336 | -80.06863 | 37108 ft | 447 kts | 21° |
| 2026-05-05 09:36 | 33.69895 | -80.03490 | 37106 ft | 448 kts | 22° |
| 2026-05-05 09:37 | 33.75460 | -80.00109 | 37099 ft | 448 kts | 22° |
| 2026-05-05 09:37 | 33.81034 | -79.96717 | 37096 ft | 449 kts | 22° |
| 2026-05-05 09:38 | 33.86604 | -79.93321 | 37097 ft | 449 kts | 22° |
| 2026-05-05 09:38 | 33.92149 | -79.89936 | 37104 ft | 449 kts | 22° |
| 2026-05-05 09:39 | 33.97756 | -79.86507 | 37096 ft | 449 kts | 22° |
| 2026-05-05 09:39 | 34.03292 | -79.83117 | 37093 ft | 449 kts | 22° |
| 2026-05-05 09:40 | 34.08857 | -79.79705 | 37090 ft | 448 kts | 22° |
| 2026-05-05 09:40 | 34.14446 | -79.76272 | 37083 ft | 448 kts | 22° |
| 2026-05-05 09:41 | 34.19971 | -79.72873 | 37092 ft | 448 kts | 22° |
| 2026-05-05 09:41 | 34.25512 | -79.69450 | 37095 ft | 448 kts | 22° |
| 2026-05-05 09:42 | 34.31062 | -79.66014 | 37084 ft | 447 kts | 22° |
| 2026-05-05 09:42 | 34.36599 | -79.62585 | 37092 ft | 447 kts | 22° |
| 2026-05-05 09:43 | 34.42146 | -79.59147 | 37091 ft | 448 kts | 22° |
| 2026-05-05 09:43 | 34.47701 | -79.55702 | 37089 ft | 448 kts | 22° |
| 2026-05-05 09:44 | 34.53262 | -79.52246 | 37089 ft | 449 kts | 22° |
| 2026-05-05 09:44 | 34.58788 | -79.48683 | 37092 ft | 451 kts | 25° |
| 2026-05-05 09:45 | 34.64267 | -79.44939 | 37099 ft | 452 kts | 25° |
| 2026-05-05 09:45 | 34.69830 | -79.41417 | 37079 ft | 448 kts | 16° |
| 2026-05-05 09:46 | 34.75792 | -79.39635 | 37103 ft | 440 kts | 5° |
| 2026-05-05 09:46 | 34.81840 | -79.38427 | 37085 ft | 441 kts | 4° |
| 2026-05-05 09:47 | 34.87859 | -79.37203 | 37092 ft | 442 kts | 5° |
| 2026-05-05 09:47 | 34.93925 | -79.35925 | 37079 ft | 443 kts | 5° |
| 2026-05-05 09:48 | 35.00009 | -79.34625 | 37076 ft | 444 kts | 5° |
| 2026-05-05 09:48 | 35.06099 | -79.33317 | 37068 ft | 444 kts | 5° |
| 2026-05-05 09:49 | 35.12199 | -79.32008 | 37072 ft | 445 kts | 5° |
| 2026-05-05 09:49 | 35.18286 | -79.30699 | 37084 ft | 444 kts | 5° |
| 2026-05-05 09:50 | 35.24375 | -79.29388 | 37081 ft | 444 kts | 5° |
| 2026-05-05 09:50 | 35.30462 | -79.28076 | 37089 ft | 444 kts | 5° |
| 2026-05-05 09:51 | 35.36505 | -79.26772 | 37082 ft | 444 kts | 5° |
| 2026-05-05 09:51 | 35.42590 | -79.25456 | 37084 ft | 444 kts | 5° |
| 2026-05-05 09:52 | 35.48669 | -79.24139 | 37084 ft | 444 kts | 5° |
| 2026-05-05 09:52 | 35.54757 | -79.22819 | 37083 ft | 444 kts | 5° |
| 2026-05-05 09:53 | 35.60846 | -79.21496 | 37083 ft | 444 kts | 5° |
| 2026-05-05 09:53 | 35.66927 | -79.20173 | 37084 ft | 444 kts | 5° |
| 2026-05-05 09:54 | 35.72999 | -79.18653 | 37074 ft | 449 kts | 13° |
| 2026-05-05 09:54 | 35.78634 | -79.15224 | 37076 ft | 459 kts | 30° |
| 2026-05-05 09:55 | 35.83806 | -79.10675 | 37070 ft | 460 kts | 32° |
| 2026-05-05 09:55 | 35.88991 | -79.06039 | 37077 ft | 460 kts | 32° |
| 2026-05-05 09:56 | 35.94195 | -79.01452 | 37074 ft | 460 kts | 31° |
| 2026-05-05 09:56 | 35.99414 | -78.96890 | 37072 ft | 460 kts | 31° |
| 2026-05-05 09:57 | 36.04649 | -78.92313 | 37079 ft | 460 kts | 31° |
| 2026-05-05 09:57 | 36.09874 | -78.87737 | 37085 ft | 460 kts | 31° |
| 2026-05-05 09:58 | 36.15100 | -78.83149 | 37082 ft | 461 kts | 31° |
| 2026-05-05 09:58 | 36.20328 | -78.78550 | 37081 ft | 461 kts | 32° |
| 2026-05-05 09:59 | 36.25562 | -78.73940 | 37091 ft | 462 kts | 32° |
| 2026-05-05 09:59 | 36.30800 | -78.69318 | 37080 ft | 463 kts | 32° |
| 2026-05-05 10:00 | 36.36043 | -78.64683 | 37074 ft | 463 kts | 32° |
| 2026-05-05 10:00 | 36.41256 | -78.60067 | 37065 ft | 464 kts | 32° |
| 2026-05-05 10:01 | 36.46538 | -78.55479 | 37064 ft | 463 kts | 29° |
| 2026-05-05 10:01 | 36.51983 | -78.51219 | 37065 ft | 462 kts | 27° |
| 2026-05-05 10:02 | 36.57449 | -78.47025 | 37064 ft | 462 kts | 28° |
| 2026-05-05 10:02 | 36.62902 | -78.42787 | 37064 ft | 462 kts | 28° |
| 2026-05-05 10:03 | 36.68337 | -78.38520 | 37063 ft | 462 kts | 28° |
| 2026-05-05 10:03 | 36.73770 | -78.34240 | 37061 ft | 462 kts | 28° |
| 2026-05-05 10:04 | 36.79193 | -78.29964 | 37064 ft | 461 kts | 28° |
| 2026-05-05 10:04 | 36.84619 | -78.25681 | 37063 ft | 461 kts | 28° |
| 2026-05-05 10:05 | 36.90039 | -78.21395 | 37055 ft | 461 kts | 28° |
| 2026-05-05 10:05 | 36.95450 | -78.17107 | 37048 ft | 460 kts | 28° |
| 2026-05-05 10:06 | 37.00848 | -78.12820 | 37049 ft | 460 kts | 29° |
| 2026-05-05 10:06 | 37.06244 | -78.08516 | 37046 ft | 460 kts | 29° |
| 2026-05-05 10:07 | 37.11637 | -78.04206 | 37039 ft | 460 kts | 29° |
| 2026-05-05 10:07 | 37.17026 | -77.99893 | 37030 ft | 459 kts | 29° |
| 2026-05-05 10:08 | 37.22370 | -77.95607 | 37025 ft | 459 kts | 29° |
| 2026-05-05 10:08 | 37.27747 | -77.91288 | 37022 ft | 459 kts | 29° |
| 2026-05-05 10:09 | 37.33117 | -77.86967 | 37029 ft | 458 kts | 29° |
| 2026-05-05 10:09 | 37.37615 | -77.83343 | 37032 ft | 458 kts | 29° |
| 2026-05-05 10:10 | 37.42983 | -77.79030 | 37029 ft | 458 kts | 29° |
| 2026-05-05 10:10 | 37.48329 | -77.74764 | 37019 ft | 457 kts | 29° |
| 2026-05-05 10:11 | 37.53694 | -77.70462 | 37019 ft | 457 kts | 29° |
| 2026-05-05 10:11 | 37.59052 | -77.66129 | 37020 ft | 457 kts | 29° |
| 2026-05-05 10:12 | 37.64404 | -77.61786 | 37017 ft | 457 kts | 29° |
| 2026-05-05 10:12 | 37.69756 | -77.57439 | 37022 ft | 457 kts | 29° |
| 2026-05-05 10:13 | 37.75107 | -77.53090 | 37018 ft | 457 kts | 29° |
| 2026-05-05 10:13 | 37.80460 | -77.48742 | 37020 ft | 457 kts | 29° |
| 2026-05-05 10:14 | 37.85809 | -77.44392 | 37013 ft | 457 kts | 29° |
| 2026-05-05 10:14 | 37.91160 | -77.40028 | 37017 ft | 457 kts | 29° |
| 2026-05-05 10:15 | 37.96518 | -77.35653 | 37006 ft | 458 kts | 30° |
| 2026-05-05 10:15 | 38.01864 | -77.31282 | 37000 ft | 458 kts | 30° |
| 2026-05-05 10:16 | 38.07216 | -77.26905 | 36997 ft | 458 kts | 30° |
| 2026-05-05 10:16 | 38.12567 | -77.22519 | 36990 ft | 457 kts | 30° |
| 2026-05-05 10:17 | 38.17907 | -77.18133 | 36987 ft | 457 kts | 30° |
| 2026-05-05 10:17 | 38.23242 | -77.13744 | 36985 ft | 457 kts | 30° |
| 2026-05-05 10:18 | 38.28574 | -77.09349 | 36996 ft | 456 kts | 30° |
| 2026-05-05 10:18 | 38.33707 | -77.04676 | 36983 ft | 457 kts | 34° |
| 2026-05-05 10:19 | 38.38747 | -76.99735 | 36978 ft | 457 kts | 35° |
| 2026-05-05 10:19 | 38.43779 | -76.94814 | 36982 ft | 456 kts | 34° |
| 2026-05-05 10:20 | 38.48848 | -76.89906 | 36983 ft | 456 kts | 34° |
| 2026-05-05 10:20 | 38.53917 | -76.85008 | 36967 ft | 457 kts | 34° |
| 2026-05-05 10:21 | 38.58970 | -76.80115 | 36971 ft | 456 kts | 34° |
| 2026-05-05 10:21 | 38.64026 | -76.75208 | 36969 ft | 456 kts | 35° |
| 2026-05-05 10:22 | 38.69083 | -76.70289 | 36963 ft | 456 kts | 35° |
| 2026-05-05 10:22 | 38.74132 | -76.65371 | 36962 ft | 456 kts | 35° |
| 2026-05-05 10:23 | 38.79184 | -76.60443 | 36955 ft | 457 kts | 35° |
| 2026-05-05 10:23 | 38.81731 | -76.57956 | 36537 ft | 463 kts | 35° |
| 2026-05-05 10:23 | 38.84287 | -76.55457 | 36034 ft | 461 kts | 35° |
| 2026-05-05 10:24 | 38.86836 | -76.52961 | 35410 ft | 461 kts | 35° |
| 2026-05-05 10:24 | 38.89388 | -76.50458 | 34769 ft | 462 kts | 35° |
| 2026-05-05 10:24 | 38.91907 | -76.47987 | 34130 ft | 462 kts | 35° |
| 2026-05-05 10:24 | 38.94468 | -76.45473 | 33459 ft | 463 kts | 36° |
| 2026-05-05 10:25 | 38.97020 | -76.42963 | 32953 ft | 460 kts | 35° |
| 2026-05-05 10:25 | 38.99586 | -76.40439 | 32470 ft | 456 kts | 35° |
| 2026-05-05 10:25 | 39.02059 | -76.38004 | 31998 ft | 453 kts | 36° |
| 2026-05-05 10:25 | 39.04489 | -76.35445 | 31531 ft | 450 kts | 39° |
| 2026-05-05 10:26 | 39.06813 | -76.32774 | 31073 ft | 446 kts | 40° |
| 2026-05-05 10:26 | 39.09088 | -76.30078 | 30614 ft | 443 kts | 41° |
| 2026-05-05 10:26 | 39.11339 | -76.27396 | 30151 ft | 439 kts | 41° |
| 2026-05-05 10:26 | 39.13578 | -76.24744 | 29696 ft | 436 kts | 40° |
| 2026-05-05 10:27 | 39.15812 | -76.22115 | 29229 ft | 432 kts | 40° |
| 2026-05-05 10:27 | 39.18028 | -76.19519 | 28760 ft | 429 kts | 40° |
| 2026-05-05 10:27 | 39.20231 | -76.16943 | 28296 ft | 426 kts | 40° |
| 2026-05-05 10:27 | 39.22422 | -76.14379 | 27825 ft | 423 kts | 40° |
| 2026-05-05 10:28 | 39.24596 | -76.11834 | 27354 ft | 421 kts | 40° |
| 2026-05-05 10:28 | 39.26760 | -76.09297 | 26897 ft | 418 kts | 40° |
| 2026-05-05 10:28 | 39.28896 | -76.06788 | 26542 ft | 414 kts | 40° |
| 2026-05-05 10:28 | 39.31030 | -76.04280 | 26182 ft | 417 kts | 40° |
| 2026-05-05 10:29 | 39.33196 | -76.01733 | 25821 ft | 425 kts | 40° |
| 2026-05-05 10:29 | 39.35393 | -75.99150 | 25446 ft | 427 kts | 41° |
| 2026-05-05 10:29 | 39.37574 | -75.96582 | 25060 ft | 422 kts | 41° |
| 2026-05-05 10:29 | 39.39736 | -75.94033 | 24689 ft | 418 kts | 41° |
| 2026-05-05 10:30 | 39.41874 | -75.91509 | 24323 ft | 414 kts | 41° |
| 2026-05-05 10:30 | 39.43993 | -75.89005 | 23968 ft | 411 kts | 41° |
| 2026-05-05 10:30 | 39.46096 | -75.86517 | 23609 ft | 409 kts | 41° |
| 2026-05-05 10:30 | 39.48188 | -75.84042 | 23250 ft | 407 kts | 41° |
| 2026-05-05 10:31 | 39.50274 | -75.81570 | 22898 ft | 406 kts | 41° |
| 2026-05-05 10:31 | 39.52356 | -75.79102 | 22553 ft | 405 kts | 41° |
| 2026-05-05 10:31 | 39.54433 | -75.76639 | 22201 ft | 405 kts | 41° |
| 2026-05-05 10:31 | 39.56505 | -75.74178 | 21845 ft | 404 kts | 41° |
| 2026-05-05 10:32 | 39.58580 | -75.71713 | 21497 ft | 404 kts | 41° |
| 2026-05-05 10:32 | 39.60648 | -75.69253 | 21138 ft | 403 kts | 41° |
| 2026-05-05 10:32 | 39.62685 | -75.66826 | 20791 ft | 402 kts | 41° |
| 2026-05-05 10:32 | 39.64743 | -75.64375 | 20442 ft | 401 kts | 41° |
| 2026-05-05 10:33 | 39.66799 | -75.61924 | 20093 ft | 400 kts | 41° |
| 2026-05-05 10:33 | 39.68842 | -75.59484 | 19715 ft | 399 kts | 41° |
| 2026-05-05 10:33 | 39.70875 | -75.57042 | 19307 ft | 398 kts | 41° |
| 2026-05-05 10:33 | 39.72900 | -75.54603 | 18901 ft | 397 kts | 41° |
| 2026-05-05 10:34 | 39.74919 | -75.52168 | 18497 ft | 395 kts | 41° |
| 2026-05-05 10:34 | 39.76929 | -75.49743 | 18090 ft | 391 kts | 41° |
| 2026-05-05 10:34 | 39.78911 | -75.47349 | 17690 ft | 388 kts | 41° |
| 2026-05-05 10:34 | 39.80880 | -75.44971 | 17290 ft | 384 kts | 41° |
| 2026-05-05 10:35 | 39.82823 | -75.42623 | 16905 ft | 381 kts | 41° |
| 2026-05-05 10:35 | 39.84759 | -75.40281 | 16518 ft | 377 kts | 41° |
| 2026-05-05 10:35 | 39.86672 | -75.37964 | 16135 ft | 374 kts | 41° |
| 2026-05-05 10:35 | 39.88565 | -75.35672 | 15755 ft | 370 kts | 41° |
| 2026-05-05 10:36 | 39.90442 | -75.33397 | 15376 ft | 368 kts | 41° |
| 2026-05-05 10:36 | 39.92307 | -75.31134 | 15003 ft | 365 kts | 41° |
| 2026-05-05 10:36 | 39.94160 | -75.28884 | 14629 ft | 363 kts | 41° |
| 2026-05-05 10:36 | 39.96002 | -75.26646 | 14258 ft | 360 kts | 41° |
| 2026-05-05 10:37 | 39.97826 | -75.24427 | 13891 ft | 358 kts | 41° |
| 2026-05-05 10:37 | 39.99641 | -75.22219 | 13525 ft | 356 kts | 41° |
| 2026-05-05 10:37 | 40.01446 | -75.20021 | 13164 ft | 355 kts | 41° |
| 2026-05-05 10:37 | 40.03247 | -75.17826 | 12797 ft | 354 kts | 41° |
| 2026-05-05 10:38 | 40.05042 | -75.15635 | 12438 ft | 353 kts | 41° |
| 2026-05-05 10:38 | 40.06828 | -75.13455 | 12078 ft | 351 kts | 41° |
| 2026-05-05 10:38 | 40.08601 | -75.11287 | 11712 ft | 348 kts | 41° |
| 2026-05-05 10:38 | 40.10360 | -75.09137 | 11405 ft | 344 kts | 41° |
| 2026-05-05 10:39 | 40.12101 | -75.07006 | 11073 ft | 341 kts | 41° |
| 2026-05-05 10:39 | 40.13649 | -75.04739 | 10970 ft | 325 kts | 53° |
| 2026-05-05 10:39 | 40.15096 | -75.02557 | 10484 ft | 320 kts | 39° |
| 2026-05-05 10:39 | 40.16810 | -75.00668 | 10330 ft | 316 kts | 36° |
| 2026-05-05 10:40 | 40.18484 | -74.98869 | 10067 ft | 309 kts | 37° |
| 2026-05-05 10:40 | 40.20129 | -74.97019 | 9665 ft | 310 kts | 38° |
| 2026-05-05 10:40 | 40.21690 | -74.95181 | 9338 ft | 303 kts | 40° |
| 2026-05-05 10:40 | 40.23245 | -74.93305 | 9048 ft | 299 kts | 40° |
| 2026-05-05 10:41 | 40.24774 | -74.91448 | 8765 ft | 299 kts | 40° |
| 2026-05-05 10:41 | 40.26266 | -74.89550 | 8497 ft | 306 kts | 44° |
| 2026-05-05 10:41 | 40.27724 | -74.87508 | 8200 ft | 308 kts | 45° |
| 2026-05-05 10:41 | 40.29166 | -74.85444 | 7979 ft | 304 kts | 45° |
| 2026-05-05 10:42 | 40.31980 | -74.81447 | 7741 ft | 296 kts | 45° |
| 2026-05-05 10:42 | 40.33379 | -74.79479 | 7645 ft | 296 kts | 45° |
| 2026-05-05 10:42 | 40.34779 | -74.77511 | 7520 ft | 294 kts | 44° |
| 2026-05-05 10:43 | 40.36177 | -74.75545 | 7438 ft | 296 kts | 45° |
| 2026-05-05 10:43 | 40.37589 | -74.73558 | 7332 ft | 300 kts | 44° |
| 2026-05-05 10:43 | 40.39009 | -74.71558 | 7233 ft | 300 kts | 45° |
| 2026-05-05 10:43 | 40.40425 | -74.69563 | 7226 ft | 296 kts | 45° |
| 2026-05-05 10:44 | 40.41872 | -74.67658 | 7043 ft | 293 kts | 33° |
| 2026-05-05 10:44 | 40.43668 | -74.66524 | 6748 ft | 284 kts | 9° |
| 2026-05-05 10:44 | 40.45584 | -74.65991 | 6452 ft | 282 kts | 5° |
| 2026-05-05 10:44 | 40.47516 | -74.65501 | 6165 ft | 282 kts | 5° |
| 2026-05-05 10:45 | 40.49442 | -74.65011 | 5879 ft | 282 kts | 5° |
| 2026-05-05 10:45 | 40.51360 | -74.64514 | 5619 ft | 280 kts | 5° |
| 2026-05-05 10:45 | 40.53260 | -74.64014 | 5337 ft | 279 kts | 6° |
| 2026-05-05 10:45 | 40.55161 | -74.63509 | 5051 ft | 278 kts | 6° |
| 2026-05-05 10:46 | 40.57059 | -74.63002 | 4772 ft | 277 kts | 6° |
| 2026-05-05 10:46 | 40.58946 | -74.62497 | 4517 ft | 276 kts | 6° |
| 2026-05-05 10:46 | 40.60771 | -74.61691 | 4264 ft | 283 kts | 29° |
| 2026-05-05 10:46 | 40.62263 | -74.59999 | 4086 ft | 283 kts | 44° |
| 2026-05-05 10:47 | 40.63611 | -74.58127 | 3826 ft | 283 kts | 45° |
| 2026-05-05 10:47 | 40.64952 | -74.56219 | 3527 ft | 283 kts | 46° |
| 2026-05-05 10:47 | 40.66279 | -74.54326 | 3321 ft | 281 kts | 46° |
| 2026-05-05 10:47 | 40.67607 | -74.52444 | 3098 ft | 280 kts | 46° |
| 2026-05-05 10:48 | 40.68942 | -74.50559 | 3018 ft | 282 kts | 45° |
| 2026-05-05 10:48 | 40.70274 | -74.48682 | 3027 ft | 280 kts | 46° |
| 2026-05-05 10:48 | 40.71548 | -74.46891 | 2993 ft | 273 kts | 45° |
| 2026-05-05 10:48 | 40.72771 | -74.45173 | 2992 ft | 261 kts | 46° |
| 2026-05-05 10:49 | 40.73987 | -74.43465 | 2968 ft | 249 kts | 46° |
| 2026-05-05 10:49 | 40.75124 | -74.41868 | 3005 ft | 241 kts | 46° |
| 2026-05-05 10:49 | 40.76291 | -74.40231 | 3009 ft | 241 kts | 45° |
| 2026-05-05 10:49 | 40.77448 | -74.38605 | 3006 ft | 244 kts | 46° |
| 2026-05-05 10:50 | 40.78601 | -74.36982 | 3026 ft | 247 kts | 45° |
| 2026-05-05 10:50 | 40.79781 | -74.35325 | 3003 ft | 248 kts | 45° |
| 2026-05-05 10:50 | 40.81704 | -74.32620 | 3018 ft | 248 kts | 45° |
| 2026-05-05 10:50 | 40.83918 | -74.29503 | 3013 ft | 248 kts | 45° |
| 2026-05-05 10:51 | 40.85573 | -74.27170 | 3015 ft | 249 kts | 45° |
| 2026-05-05 10:51 | 40.86756 | -74.25504 | 3003 ft | 249 kts | 45° |
| 2026-05-05 10:51 | 40.87940 | -74.23835 | 2989 ft | 249 kts | 46° |
| 2026-05-05 10:51 | 40.89119 | -74.22170 | 3008 ft | 247 kts | 46° |
| 2026-05-05 10:52 | 40.90298 | -74.20502 | 2999 ft | 248 kts | 46° |
| 2026-05-05 10:52 | 40.91255 | -74.18645 | 2974 ft | 243 kts | 77° |
| 2026-05-05 10:52 | 40.91221 | -74.16584 | 3002 ft | 212 kts | 119° |
| 2026-05-05 10:52 | 40.90514 | -74.14982 | 2995 ft | 197 kts | 137° |
| 2026-05-05 10:53 | 40.89532 | -74.13762 | 2999 ft | 194 kts | 150° |
| 2026-05-05 10:53 | 40.88479 | -74.12695 | 2994 ft | 185 kts | 151° |
| 2026-05-05 10:53 | 40.87485 | -74.11699 | 2979 ft | 174 kts | 151° |
| 2026-05-05 10:53 | 40.86536 | -74.10746 | 2794 ft | 171 kts | 151° |
| 2026-05-05 10:54 | 40.85578 | -74.09782 | 2510 ft | 173 kts | 150° |
| 2026-05-05 10:54 | 40.84619 | -74.08820 | 2246 ft | 174 kts | 150° |
| 2026-05-05 10:54 | 40.83539 | -74.08336 | 2054 ft | 158 kts | 192° |
| 2026-05-05 10:54 | 40.82543 | -74.08802 | 1930 ft | 148 kts | 202° |
| 2026-05-05 10:55 | 40.81523 | -74.09271 | 1782 ft | 177 kts | 200° |
| 2026-05-05 10:55 | 40.80344 | -74.09807 | 2116 ft | 170 kts | 203° |
| 2026-05-05 10:55 | 40.79300 | -74.10422 | 1959 ft | 154 kts | 208° |
| 2026-05-05 10:55 | 40.78401 | -74.11013 | 1742 ft | 138 kts | 208° |
| 2026-05-05 10:56 | 40.77857 | -74.11362 | 1772 ft | 129 kts | 208° |
| 2026-05-05 10:56 | 40.76652 | -74.12136 | 1541 ft | 148 kts | 208° |
| 2026-05-05 10:56 | 40.75739 | -74.12718 | 1320 ft | 146 kts | 207° |
| 2026-05-05 10:56 | 40.74829 | -74.13298 | 1145 ft | 147 kts | 207° |
| 2026-05-05 10:57 | 40.73904 | -74.13888 | 937 ft | 147 kts | 206° |
| 2026-05-05 10:57 | 40.72988 | -74.14473 | 733 ft | 145 kts | 207° |
| 2026-05-05 10:57 | 40.72378 | -74.14862 | 599 ft | 145 kts | 207° |
| 2026-05-05 10:57 | 40.71475 | -74.15459 | 374 ft | 145 kts | 208° |
| 2026-05-05 10:58 | 40.70563 | -74.16013 | 161 ft | 142 kts | 206° |
| 2026-05-05 10:58 | 40.69694 | -74.16578 | 29 ft | 136 kts | 207° |
| 2026-05-05 10:58 | 40.69019 | -74.17012 | 19 ft | 61 kts | 205° |
| 2026-05-05 10:58 | 40.68859 | -74.17110 | 22 ft | 15 kts | 205° |
| 2026-05-05 10:59 | 40.68781 | -74.17194 | 23 ft | 14 kts | 236° |
| 2026-05-05 10:59 | 40.68731 | -74.17301 | 23 ft | 14 kts | 238° |
| 2026-05-05 10:59 | 40.68670 | -74.17388 | 27 ft | 13 kts | 207° |
| 2026-05-05 10:59 | 40.68589 | -74.17440 | 27 ft | 13 kts | 215° |
| 2026-05-05 11:00 | 40.68596 | -74.17544 | 23 ft | 13 kts | 294° |
| 2026-05-05 11:00 | 40.68632 | -74.17656 | 20 ft | 14 kts | 288° |
| 2026-05-05 11:00 | 40.68666 | -74.17762 | 22 ft | 9 kts | 306° |
| 2026-05-05 11:00 | 40.68723 | -74.17747 | 22 ft | 8 kts | 33° |
| 2026-05-05 11:01 | 40.68739 | -74.17734 | 20 ft | 0 kts | 31° |